Time;durP1;ratioP1;P1;durP2;ratioP2;P2;SDS_P1;SDS_P2;PMS_P1;PMS_P2;Temp;Humidity;BMP_temperature;BMP_pressure;BME280_temperature;BME280_humidity;BME280_pressure;Samples;Min_cycle;Max_cycle;Signal;HPM_P1;HPM_P2
2022/01/07 00:00:18;;;;;;;12.70;5.00;;;3.40;96.30;;;;;;4967291;28;20051;-64
2022/01/07 00:02:49;;;;;;;15.85;4.80;;;3.40;96.10;;;;;;4946469;28;20054;-64
2022/01/07 00:05:16;;;;;;;15.23;4.72;;;3.40;96.00;;;;;;4966085;28;20039;-64
2022/01/07 00:07:42;;;;;;;24.77;5.97;;;3.40;96.00;;;;;;4965101;28;20076;-64
2022/01/07 00:10:10;;;;;;;21.08;4.47;;;3.40;95.80;;;;;;4963108;28;20043;-64
2022/01/07 00:12:36;;;;;;;17.60;5.43;;;3.40;95.50;;;;;;4964976;28;20087;-64
2022/01/07 00:15:03;;;;;;;8.38;3.05;;;3.40;95.30;;;;;;4973226;28;20058;-64
2022/01/07 00:17:35;;;;;;;24.95;6.20;;;3.40;95.60;;;;;;4968465;28;20448;-64
2022/01/07 00:20:03;;;;;;;17.00;5.60;;;3.50;95.40;;;;;;4948450;28;20039;-64
2022/01/07 00:22:28;;;;;;;18.42;5.75;;;3.40;95.50;;;;;;4948205;28;20062;-65
2022/01/07 00:24:54;;;;;;;18.15;5.88;;;3.40;95.60;;;;;;4964870;28;20088;-64
2022/01/07 00:27:20;;;;;;;11.55;3.92;;;3.50;95.50;;;;;;4963515;28;20054;-64
2022/01/07 00:29:45;;;;;;;17.85;5.32;;;3.40;95.70;;;;;;4949020;28;20082;-64
2022/01/07 00:32:11;;;;;;;19.52;6.57;;;3.40;95.40;;;;;;4956877;28;20093;-65
2022/01/07 00:34:37;;;;;;;10.07;2.63;;;3.40;95.60;;;;;;4969563;28;20133;-64
2022/01/07 00:37:03;;;;;;;22.73;6.05;;;3.40;95.40;;;;;;4991444;28;20042;-64
2022/01/07 00:39:29;;;;;;;32.42;6.47;;;3.40;95.50;;;;;;4989899;28;20045;-64
2022/01/07 00:41:54;;;;;;;22.83;6.05;;;3.40;95.40;;;;;;4971940;28;20049;-64
2022/01/07 00:44:20;;;;;;;15.65;4.72;;;3.40;95.60;;;;;;4995109;28;20053;-64
2022/01/07 00:46:46;;;;;;;19.40;5.40;;;3.50;95.40;;;;;;5006022;28;20046;-65
2022/01/07 00:49:20;;;;;;;12.13;4.00;;;3.40;95.40;;;;;;5006205;28;20538;-64
2022/01/07 00:51:49;;;;;;;14.82;4.43;;;3.40;95.80;;;;;;4988927;28;20055;-64
2022/01/07 00:54:16;;;;;;;18.25;5.32;;;3.40;95.10;;;;;;4998783;28;20117;-65
2022/01/07 00:56:42;;;;;;;21.15;5.25;;;3.40;95.10;;;;;;4973292;28;20082;-64
2022/01/07 00:59:08;;;;;;;9.30;2.97;;;3.50;95.30;;;;;;4979978;28;20046;-64
2022/01/07 01:01:35;;;;;;;17.15;4.07;;;3.40;95.40;;;;;;4971415;28;20306;-64
2022/01/07 01:04:01;;;;;;;18.23;4.13;;;3.50;95.10;;;;;;4971257;28;20133;-64
2022/01/07 01:06:26;;;;;;;16.05;4.75;;;3.50;95.50;;;;;;4988196;28;20129;-64
2022/01/07 01:08:52;;;;;;;17.48;3.92;;;3.40;96.00;;;;;;4989183;28;20073;-64
2022/01/07 01:11:18;;;;;;;12.35;3.65;;;3.40;96.40;;;;;;4988018;28;20046;-64
2022/01/07 01:13:44;;;;;;;12.07;3.70;;;3.40;96.10;;;;;;4971877;28;20134;-64
2022/01/07 01:16:09;;;;;;;12.18;4.53;;;3.30;96.60;;;;;;4987854;28;20046;-64
2022/01/07 01:18:35;;;;;;;11.38;3.67;;;3.30;97.50;;;;;;4987330;28;20042;-63
2022/01/07 01:21:01;;;;;;;13.27;4.28;;;3.20;97.40;;;;;;4988847;28;20057;-64
2022/01/07 01:23:27;;;;;;;19.08;4.72;;;3.20;97.30;;;;;;4970835;28;20093;-63
2022/01/07 01:25:52;;;;;;;12.13;3.58;;;3.10;97.60;;;;;;4971293;28;20382;-64
2022/01/07 01:28:18;;;;;;;17.23;5.07;;;3.10;98.10;;;;;;4971004;28;20393;-64
2022/01/07 01:30:44;;;;;;;20.25;4.05;;;3.10;98.40;;;;;;4980630;28;20495;-64
2022/01/07 01:33:12;;;;;;;7.78;2.92;;;3.00;98.40;;;;;;4986742;28;20054;-64
2022/01/07 01:35:41;;;;;;;11.02;3.25;;;3.00;98.50;;;;;;4989052;28;20073;-63
2022/01/07 01:38:07;;;;;;;8.60;3.58;;;3.00;98.50;;;;;;4988075;28;20492;-63
2022/01/07 01:40:34;;;;;;;19.55;4.88;;;3.10;98.90;;;;;;4987589;28;20082;-63
2022/01/07 01:43:01;;;;;;;6.50;2.30;;;3.00;98.80;;;;;;4970844;28;20046;-63
2022/01/07 01:45:27;;;;;;;12.15;4.35;;;3.00;98.90;;;;;;4987512;28;20050;-63
2022/01/07 01:47:54;;;;;;;8.38;3.40;;;3.00;99.10;;;;;;4980291;28;20053;-63
2022/01/07 01:50:22;;;;;;;13.45;3.80;;;3.00;99.10;;;;;;4984569;28;20124;-63
2022/01/07 01:52:53;;;;;;;21.60;5.53;;;2.90;99.30;;;;;;4988460;28;20105;-63
2022/01/07 01:55:19;;;;;;;18.77;4.38;;;2.90;99.40;;;;;;4970153;28;20046;-63
2022/01/07 01:57:46;;;;;;;7.25;3.35;;;3.00;99.40;;;;;;4992928;28;20066;-63
2022/01/07 02:00:13;;;;;;;14.70;3.47;;;2.90;99.40;;;;;;4992081;28;20580;-63
2022/01/07 02:02:40;;;;;;;9.20;2.17;;;2.90;99.50;;;;;;4981154;28;20118;-63
2022/01/07 02:05:06;;;;;;;17.08;4.13;;;2.90;99.60;;;;;;4984625;28;20031;-63
2022/01/07 02:07:35;;;;;;;9.25;3.40;;;2.90;99.80;;;;;;4968122;28;20303;-63
2022/01/07 02:10:05;;;;;;;19.63;4.60;;;2.90;99.70;;;;;;4980968;28;20039;-63
2022/01/07 02:12:31;;;;;;;;;;;2.90;99.80;;;;;;4970492;28;20411;-63
2022/01/07 02:14:57;;;;;;;7.50;3.17;;;2.90;99.90;;;;;;4985730;28;20415;-63
2022/01/07 02:17:25;;;;;;;15.27;4.75;;;2.90;99.90;;;;;;4988060;28;20060;-63
2022/01/07 02:19:52;;;;;;;8.20;3.70;;;2.90;99.90;;;;;;4986899;28;20054;-63
2022/01/07 02:22:18;;;;;;;15.77;4.40;;;2.80;99.90;;;;;;4988015;28;20050;-63
2022/01/07 02:24:47;;;;;;;11.63;3.45;;;2.80;99.90;;;;;;4969007;28;20085;-63
2022/01/07 02:27:14;;;;;;;2.70;1.42;;;2.80;99.90;;;;;;4987621;28;20129;-63
2022/01/07 02:29:43;;;;;;;22.13;4.80;;;2.80;99.90;;;;;;4970023;28;20058;-63
2022/01/07 02:32:09;;;;;;;10.10;3.67;;;2.80;99.90;;;;;;4964568;28;20073;-63
2022/01/07 02:34:36;;;;;;;13.02;3.08;;;2.80;99.90;;;;;;4991041;28;20045;-63
2022/01/07 02:37:02;;;;;;;6.00;2.28;;;2.80;99.90;;;;;;4975877;28;20101;-63
2022/01/07 02:39:29;;;;;;;13.73;4.32;;;2.70;99.90;;;;;;4992922;28;20117;-63
2022/01/07 02:41:56;;;;;;;12.98;4.63;;;2.70;99.90;;;;;;4968610;28;20043;-63
2022/01/07 02:44:22;;;;;;;13.40;4.88;;;2.70;99.90;;;;;;4986678;28;20073;-63
2022/01/07 02:46:48;;;;;;;8.23;3.33;;;2.70;99.90;;;;;;4987409;28;20578;-63
2022/01/07 02:49:17;;;;;;;2.53;1.63;;;2.70;99.90;;;;;;4969317;28;20065;-63
2022/01/07 02:51:44;;;;;;;14.90;4.75;;;2.70;99.90;;;;;;4986887;28;20057;-63
2022/01/07 02:54:11;;;;;;;6.93;3.45;;;2.60;99.90;;;;;;4968311;28;20141;-63
2022/01/07 02:56:37;;;;;;;9.27;2.75;;;2.60;99.90;;;;;;4987255;28;20053;-63
2022/01/07 02:59:05;;;;;;;8.18;3.55;;;2.60;99.90;;;;;;4985638;28;20053;-63
2022/01/07 03:01:31;;;;;;;16.98;5.25;;;2.60;99.90;;;;;;4987174;28;20045;-63
2022/01/07 03:03:58;;;;;;;6.97;3.38;;;2.60;99.90;;;;;;4985444;28;20066;-63
2022/01/07 03:06:24;;;;;;;11.85;3.60;;;2.60;99.90;;;;;;4987381;28;20038;-63
2022/01/07 03:08:51;;;;;;;6.40;2.63;;;2.60;99.90;;;;;;4993639;28;20121;-63
2022/01/07 03:11:18;;;;;;;5.85;3.17;;;2.60;99.90;;;;;;4986013;28;20405;-63
2022/01/07 03:13:44;;;;;;;8.02;3.75;;;2.50;99.90;;;;;;4969830;28;20046;-63
2022/01/07 03:16:10;;;;;;;18.25;4.13;;;2.60;99.90;;;;;;4984114;28;20038;-63
2022/01/07 03:18:36;;;;;;;11.13;4.55;;;2.60;99.90;;;;;;4986709;28;20058;-63
2022/01/07 03:21:03;;;;;;;12.45;3.85;;;2.50;99.90;;;;;;4979606;28;20057;-63
2022/01/07 03:23:31;;;;;;;18.02;5.10;;;2.60;99.90;;;;;;4982794;28;20054;-63
2022/01/07 03:25:57;;;;;;;4.75;2.60;;;2.50;99.90;;;;;;4967116;28;20061;-64
2022/01/07 03:28:23;;;;;;;9.75;4.18;;;2.60;99.90;;;;;;4982446;28;20496;-63
2022/01/07 03:30:49;;;;;;;13.07;4.88;;;2.50;99.90;;;;;;4985313;28;20049;-63
2022/01/07 03:33:15;;;;;;;6.03;4.22;;;2.50;99.90;;;;;;4981461;28;20050;-63
2022/01/07 03:35:42;;;;;;;11.32;3.35;;;2.50;99.90;;;;;;4986412;28;20428;-63
2022/01/07 03:38:08;;;;;;;14.60;4.53;;;2.50;99.90;;;;;;4983583;28;20046;-63
2022/01/07 03:40:35;;;;;;;7.88;3.63;;;2.50;99.90;;;;;;4986570;28;20039;-63
2022/01/07 03:43:02;;;;;;;13.65;4.45;;;2.50;99.90;;;;;;4984207;28;20058;-63
2022/01/07 03:45:28;;;;;;;9.18;3.05;;;2.50;99.90;;;;;;4967673;28;20493;-63
2022/01/07 03:47:54;;;;;;;12.57;4.50;;;2.50;99.90;;;;;;4952046;28;20096;-63
2022/01/07 03:50:22;;;;;;;12.73;4.57;;;2.50;99.90;;;;;;4950502;28;20493;-63
2022/01/07 03:52:48;;;;;;;8.43;3.95;;;2.60;99.90;;;;;;4985997;28;20598;-63
2022/01/07 03:55:19;;;;;;;9.90;3.53;;;2.50;99.90;;;;;;4966006;28;20122;-63
2022/01/07 03:57:52;;;;;;;8.15;3.92;;;2.50;99.90;;;;;;4985995;28;20074;-63
2022/01/07 04:00:21;;;;;;;10.27;4.50;;;2.50;99.90;;;;;;4966856;28;20089;-63
2022/01/07 04:02:49;;;;;;;10.07;4.80;;;2.50;99.90;;;;;;4985872;28;20047;-63
2022/01/07 04:05:19;;;;;;;8.70;4.80;;;2.60;99.90;;;;;;4990072;28;20038;-63
2022/01/07 04:07:45;;;;;;;9.18;3.45;;;2.50;99.90;;;;;;4988793;28;20045;-63
2022/01/07 04:10:11;;;;;;;5.00;2.92;;;2.60;99.90;;;;;;4972420;28;20130;-63
2022/01/07 04:12:37;;;;;;;6.57;3.88;;;2.50;99.90;;;;;;4971389;28;20125;-63
2022/01/07 04:17:32;;;;;;;9.00;4.20;;;2.50;99.90;;;;;;4983680;28;20050;-63
2022/01/07 04:19:57;;;;;;;4.93;3.28;;;2.50;99.90;;;;;;4988364;28;20046;-63
2022/01/07 04:22:23;;;;;;;7.82;4.43;;;2.50;99.90;;;;;;4988813;28;20042;-63
2022/01/07 04:24:49;;;;;;;11.48;5.25;;;2.50;99.90;;;;;;4987692;28;20139;-63
2022/01/07 04:27:15;;;;;;;11.32;4.65;;;2.50;99.90;;;;;;4989785;28;20053;-63
2022/01/07 04:29:41;;;;;;;7.93;5.65;;;2.60;99.90;;;;;;4970857;28;20046;-63
2022/01/07 04:32:09;;;;;;;10.52;5.18;;;2.60;99.90;;;;;;4979906;28;20125;-63
2022/01/07 04:34:35;;;;;;;7.32;4.25;;;2.60;99.90;;;;;;5005802;28;20054;-63
2022/01/07 04:37:00;;;;;;;9.52;4.68;;;2.60;99.90;;;;;;4980406;28;20134;-63
2022/01/07 04:39:26;;;;;;;13.63;5.07;;;2.60;99.90;;;;;;4994814;28;20129;-63
2022/01/07 04:41:52;;;;;;;11.18;5.03;;;2.60;99.90;;;;;;4989239;28;20507;-63
2022/01/07 04:44:19;;;;;;;4.78;3.38;;;2.60;99.90;;;;;;4989645;28;20042;-63
2022/01/07 04:46:45;;;;;;;9.95;4.93;;;2.60;99.90;;;;;;4971016;28;20050;-63
2022/01/07 04:49:10;;;;;;;7.70;3.53;;;2.70;99.90;;;;;;4972203;28;20370;-63
2022/01/07 04:51:36;;;;;;;6.28;3.80;;;2.60;99.90;;;;;;4988450;28;20046;-63
2022/01/07 04:54:02;;;;;;;14.90;4.82;;;2.70;99.90;;;;;;4989773;28;20050;-63
2022/01/07 04:56:28;;;;;;;12.38;5.22;;;2.70;99.90;;;;;;4971057;28;20674;-63
2022/01/07 04:58:53;;;;;;;12.07;5.72;;;2.70;99.90;;;;;;4988862;28;20046;-63
2022/01/07 05:01:19;;;;;;;8.45;3.95;;;2.80;99.90;;;;;;4971834;28;20050;-63
2022/01/07 05:03:45;;;;;;;7.13;3.60;;;2.70;99.90;;;;;;4954178;28;20085;-63
2022/01/07 05:08:48;;;;;;;6.68;4.13;;;2.70;99.90;;;;;;4977541;28;20046;-63
2022/01/07 05:11:13;;;;;;;8.43;4.13;;;2.70;99.90;;;;;;4971433;28;20515;-63
2022/01/07 05:13:39;;;;;;;13.05;5.15;;;2.70;99.90;;;;;;4988800;28;20042;-63
2022/01/07 05:16:06;;;;;;;7.18;4.18;;;2.80;99.90;;;;;;4988215;28;20491;-63
2022/01/07 05:18:33;;;;;;;7.88;3.67;;;2.70;99.90;;;;;;4988741;28;20047;-63
2022/01/07 05:20:58;;;;;;;8.18;5.40;;;2.80;99.90;;;;;;4988126;28;20065;-63
2022/01/07 05:23:24;;;;;;;5.68;3.58;;;2.80;99.90;;;;;;4939833;28;20058;-63
2022/01/07 05:25:50;;;;;;;4.53;3.45;;;2.80;99.90;;;;;;4988832;28;20129;-63
2022/01/07 05:28:16;;;;;;;6.32;2.63;;;2.80;99.90;;;;;;4972071;28;20211;-63
2022/01/07 05:30:42;;;;;;;10.95;4.20;;;2.90;99.90;;;;;;4989007;28;20050;-63
2022/01/07 05:33:08;;;;;;;6.57;2.83;;;2.90;99.90;;;;;;4988975;28;20462;-63
2022/01/07 05:35:33;;;;;;;2.75;2.42;;;2.90;99.90;;;;;;4971677;28;20136;-63
2022/01/07 05:37:59;;;;;;;9.77;5.10;;;2.90;99.90;;;;;;4988401;28;20501;-63
2022/01/07 05:40:25;;;;;;;4.75;3.30;;;3.00;99.90;;;;;;4987887;28;20473;-63
2022/01/07 05:42:51;;;;;;;5.07;4.60;;;2.90;99.90;;;;;;4988218;28;20400;-63
2022/01/07 05:45:17;;;;;;;6.80;3.60;;;3.00;99.90;;;;;;4989488;28;20133;-63
2022/01/07 05:47:43;;;;;;;8.82;4.85;;;3.00;99.90;;;;;;4970695;28;20117;-63
2022/01/07 05:50:09;;;;;;;8.55;4.32;;;3.00;99.90;;;;;;4989519;28;20061;-63
2022/01/07 05:52:35;;;;;;;7.32;3.97;;;3.00;99.90;;;;;;4988303;28;20134;-63
2022/01/07 05:55:01;;;;;;;9.80;4.25;;;3.00;99.90;;;;;;4988417;28;20042;-63
2022/01/07 05:57:27;;;;;;;3.60;2.15;;;3.10;99.90;;;;;;4966700;28;20493;-63
2022/01/07 05:59:53;;;;;;;4.47;2.95;;;3.10;99.90;;;;;;4987568;28;20059;-63
2022/01/07 06:02:19;;;;;;;3.83;2.50;;;3.10;99.90;;;;;;4983160;28;20038;-63
2022/01/07 06:04:45;;;;;;;10.68;4.85;;;3.10;99.90;;;;;;4986297;28;20050;-63
2022/01/07 06:07:11;;;;;;;6.43;4.00;;;3.10;99.90;;;;;;4971651;28;20039;-63
2022/01/07 06:09:37;;;;;;;3.78;2.50;;;3.10;99.90;;;;;;4987829;28;20051;-63
2022/01/07 06:12:03;;;;;;;7.57;2.88;;;3.20;99.90;;;;;;4987811;28;20077;-64
2022/01/07 06:14:28;;;;;;;6.72;3.40;;;3.20;99.90;;;;;;4970864;28;20506;-63
2022/01/07 06:16:54;;;;;;;4.68;3.53;;;3.20;99.90;;;;;;4988216;28;20130;-63
2022/01/07 06:19:21;;;;;;;4.80;2.22;;;3.20;99.90;;;;;;4970792;28;20069;-63
2022/01/07 06:21:47;;;;;;;1.75;1.65;;;3.20;99.90;;;;;;4987376;28;20590;-63
2022/01/07 06:24:13;;;;;;;7.88;3.90;;;3.20;99.90;;;;;;4988816;28;20042;-63
2022/01/07 06:26:39;;;;;;;3.65;2.53;;;3.20;99.90;;;;;;4987027;28;20056;-63
2022/01/07 06:29:05;;;;;;;7.03;4.38;;;3.20;99.90;;;;;;4987432;28;20100;-63
2022/01/07 06:31:31;;;;;;;9.50;3.08;;;3.20;99.90;;;;;;4952881;28;20125;-63
2022/01/07 06:33:58;;;;;;;6.45;3.67;;;3.20;99.90;;;;;;4969685;28;20066;-64
2022/01/07 06:36:25;;;;;;;4.85;3.80;;;3.20;99.90;;;;;;4987857;28;20061;-63
2022/01/07 06:38:51;;;;;;;4.65;3.67;;;3.20;99.90;;;;;;4987383;28;20058;-63
2022/01/07 06:41:16;;;;;;;10.52;4.97;;;3.30;99.90;;;;;;4971151;28;20182;-63
2022/01/07 06:43:43;;;;;;;6.38;3.85;;;3.20;99.90;;;;;;4969322;28;20385;-64
2022/01/07 06:46:11;;;;;;;4.55;3.78;;;3.20;99.90;;;;;;4985741;28;20049;-63
2022/01/07 06:48:37;;;;;;;7.57;4.72;;;3.20;99.90;;;;;;4973413;28;20370;-63
2022/01/07 06:51:03;;;;;;;9.38;4.40;;;3.30;99.90;;;;;;4970248;28;20046;-63
2022/01/07 06:53:30;;;;;;;10.57;4.28;;;3.30;99.90;;;;;;4987293;28;20042;-63
2022/01/07 06:56:00;;;;;;;3.17;2.83;;;3.30;99.90;;;;;;4969287;28;20610;-63
2022/01/07 06:58:26;;;;;;;9.40;4.30;;;3.30;99.90;;;;;;4987609;28;20133;-63
2022/01/07 07:00:53;;;;;;;7.18;2.05;;;3.30;99.90;;;;;;4985325;28;20508;-63
2022/01/07 07:03:18;;;;;;;7.13;4.22;;;3.30;99.90;;;;;;4983057;28;20502;-63
2022/01/07 07:05:44;;;;;;;7.30;3.35;;;3.20;99.90;;;;;;4968741;28;20073;-63
2022/01/07 07:08:10;;;;;;;13.25;5.10;;;3.30;99.90;;;;;;4970487;28;20050;-63
2022/01/07 07:10:36;;;;;;;6.05;4.47;;;3.30;99.90;;;;;;4987192;28;20065;-62
2022/01/07 07:13:01;;;;;;;9.07;4.20;;;3.30;99.90;;;;;;4985378;28;20489;-63
2022/01/07 07:15:27;;;;;;;11.07;4.30;;;3.30;99.90;;;;;;4987841;28;20046;-63
2022/01/07 07:17:53;;;;;;;5.38;3.85;;;3.30;99.90;;;;;;4986300;28;20045;-63
2022/01/07 07:20:19;;;;;;;5.65;3.65;;;3.30;99.90;;;;;;4970289;28;20046;-63
2022/01/07 07:22:45;;;;;;;3.17;2.55;;;3.30;99.90;;;;;;4985866;28;20401;-62
2022/01/07 07:25:11;;;;;;;2.55;1.95;;;3.30;99.90;;;;;;4987953;28;20036;-63
2022/01/07 07:27:37;;;;;;;5.82;3.53;;;3.40;99.90;;;;;;4986687;28;20050;-63
2022/01/07 07:30:08;;;;;;;6.82;4.38;;;3.40;99.90;;;;;;4986762;28;20113;-63
2022/01/07 07:32:35;;;;;;;8.25;4.43;;;3.40;99.90;;;;;;4986117;28;20038;-63
2022/01/07 07:35:12;;;;;;;5.65;3.33;;;3.40;99.90;;;;;;4984868;28;20081;-63
2022/01/07 07:37:38;;;;;;;9.52;4.07;;;3.40;99.90;;;;;;4970894;28;20058;-63
2022/01/07 07:40:05;;;;;;;5.45;4.55;;;3.40;99.90;;;;;;4985749;28;20054;-62
2022/01/07 07:42:31;;;;;;;2.85;2.45;;;3.40;99.90;;;;;;4987069;28;20113;-63
2022/01/07 07:44:57;;;;;;;4.85;2.88;;;3.40;99.90;;;;;;4987176;28;20525;-63
2022/01/07 07:47:22;;;;;;;4.53;3.92;;;3.50;99.90;;;;;;4986804;28;20432;-63
2022/01/07 07:49:48;;;;;;;2.30;2.17;;;3.50;99.90;;;;;;4969186;28;20046;-63
2022/01/07 07:52:15;;;;;;;9.23;3.58;;;3.50;99.90;;;;;;4986059;28;20042;-63
2022/01/07 07:54:40;;;;;;;5.82;4.05;;;3.50;99.90;;;;;;4987142;28;20051;-63
2022/01/07 07:57:07;;;;;;;4.53;4.07;;;3.50;99.90;;;;;;4985342;28;20155;-62
2022/01/07 07:59:32;;;;;;;3.90;2.55;;;3.50;99.90;;;;;;4987066;28;20046;-63
2022/01/07 08:02:00;;;;;;;5.32;4.82;;;3.50;99.90;;;;;;4958410;28;20134;-63
2022/01/07 08:04:26;;;;;;;4.15;3.38;;;3.60;99.90;;;;;;4972258;28;20042;-63
2022/01/07 08:06:53;;;;;;;2.63;2.40;;;3.60;99.90;;;;;;4983838;28;20081;-62
2022/01/07 08:09:19;;;;;;;7.30;3.80;;;3.60;99.90;;;;;;4982004;28;20038;-63
2022/01/07 08:11:49;;;;;;;6.43;4.63;;;3.60;99.90;;;;;;4976427;28;20042;-63
2022/01/07 08:17:00;;;;;;;7.78;4.07;;;3.60;99.90;;;;;;4973466;28;20047;-63
2022/01/07 08:19:26;;;;;;;4.40;3.72;;;3.60;99.90;;;;;;4969106;28;20043;-62
2022/01/07 08:21:52;;;;;;;4.15;2.80;;;3.60;99.90;;;;;;4969384;28;20034;-63
2022/01/07 08:24:18;;;;;;;9.13;4.68;;;3.70;99.90;;;;;;4970449;28;20400;-63
2022/01/07 08:26:44;;;;;;;10.73;4.90;;;3.70;99.90;;;;;;4963753;28;20042;-63
2022/01/07 08:29:12;;;;;;;6.85;5.07;;;3.80;99.90;;;;;;4938286;28;20039;-63
2022/01/07 08:36:52;;;;;;;7.97;4.30;;;3.80;99.90;;;;;;4984781;28;20050;-63
2022/01/07 08:39:18;;;;;;;2.70;2.40;;;3.90;99.90;;;;;;4982026;28;20496;-63
2022/01/07 08:41:44;;;;;;;10.30;5.32;;;3.90;99.90;;;;;;4984019;28;20038;-63
2022/01/07 08:44:11;;;;;;;7.07;3.90;;;3.90;99.90;;;;;;4983875;28;20038;-63
2022/01/07 08:46:38;;;;;;;13.32;5.75;;;3.90;99.90;;;;;;4967692;28;20050;-63
2022/01/07 08:49:05;;;;;;;10.27;5.38;;;3.90;99.90;;;;;;4958082;28;20058;-63
2022/01/07 08:51:31;;;;;;;16.38;4.78;;;4.00;99.90;;;;;;4991901;28;20373;-63
2022/01/07 08:54:00;;;;;;;11.23;4.50;;;3.90;99.90;;;;;;4986275;28;20541;-63
2022/01/07 08:56:26;;;;;;;8.50;4.85;;;4.00;99.90;;;;;;4985622;28;20168;-63
2022/01/07 08:58:56;;;;;;;11.00;5.22;;;4.00;99.90;;;;;;4970198;28;20051;-63
2022/01/07 09:01:24;;;;;;;14.50;5.60;;;4.00;99.90;;;;;;4986491;28;20035;-63
2022/01/07 09:03:49;;;;;;;15.02;6.38;;;4.10;99.90;;;;;;4987821;28;20054;-64
2022/01/07 09:06:15;;;;;;;10.88;5.53;;;4.10;99.90;;;;;;4980682;28;20100;-63
2022/01/07 09:08:42;;;;;;;7.80;2.75;;;4.20;99.90;;;;;;4990974;28;20042;-62
2022/01/07 09:11:08;;;;;;;3.03;2.33;;;4.20;99.90;;;;;;4968624;28;20049;-63
2022/01/07 09:13:34;;;;;;;5.97;4.05;;;4.20;99.90;;;;;;4986289;28;20253;-63
2022/01/07 09:16:00;;;;;;;11.77;5.10;;;4.30;99.90;;;;;;4971525;28;20054;-63
2022/01/07 09:18:26;;;;;;;12.55;4.72;;;4.30;99.90;;;;;;4969475;28;20078;-63
2022/01/07 09:20:54;;;;;;;17.15;7.00;;;4.40;99.90;;;;;;4987957;28;20053;-63
2022/01/07 09:23:19;;;;;;;14.88;6.13;;;4.50;99.90;;;;;;4987950;28;20515;-63
2022/01/07 09:25:45;;;;;;;16.05;6.45;;;4.60;99.90;;;;;;4987809;28;20042;-64
2022/01/07 09:28:11;;;;;;;11.63;3.53;;;4.60;99.90;;;;;;5000926;28;20553;-63
2022/01/07 09:30:37;;;;;;;11.00;5.97;;;4.70;99.90;;;;;;4996907;28;20054;-63
2022/01/07 09:33:04;;;;;;;8.40;3.00;;;4.80;99.90;;;;;;4999381;28;20039;-63
2022/01/07 09:35:31;;;;;;;13.88;6.07;;;4.80;99.90;;;;;;4988227;28;20050;-64
2022/01/07 09:37:57;;;;;;;15.52;6.40;;;4.80;99.90;;;;;;4998822;28;20508;-63
2022/01/07 09:40:23;;;;;;;18.40;7.68;;;4.80;99.90;;;;;;4990809;28;20038;-63
2022/01/07 09:43:04;;;;;;;17.58;8.38;;;4.80;99.90;;;;;;4988272;28;20120;-63
2022/01/07 09:45:33;;;;;;;12.30;5.63;;;4.80;99.90;;;;;;5002350;28;20053;-64
2022/01/07 09:48:01;;;;;;;27.02;9.15;;;4.80;99.90;;;;;;5001835;28;20049;-63
2022/01/07 09:50:28;;;;;;;7.25;4.60;;;4.80;99.90;;;;;;4993930;28;20042;-63
2022/01/07 09:52:55;;;;;;;24.67;7.07;;;4.80;99.90;;;;;;4997588;28;20500;-64
2022/01/07 09:55:22;;;;;;;11.90;4.47;;;4.80;99.90;;;;;;4990211;28;20475;-63
2022/01/07 09:57:48;;;;;;;10.95;4.90;;;4.80;99.90;;;;;;4975579;28;20042;-63
2022/01/07 10:00:14;;;;;;;16.80;7.82;;;4.90;99.90;;;;;;4987286;28;20053;-63
2022/01/07 10:03:01;;;;;;;12.93;3.75;;;4.90;99.90;;;;;;4986314;28;20225;-63
2022/01/07 10:05:28;;;;;;;18.00;7.15;;;4.90;99.90;;;;;;4969703;28;20064;-63
2022/01/07 10:07:53;;;;;;;28.42;9.02;;;4.90;99.90;;;;;;4986280;28;20119;-63
2022/01/07 10:10:19;;;;;;;24.98;7.80;;;4.90;99.90;;;;;;4985173;28;20046;-63
2022/01/07 10:12:48;;;;;;;22.85;8.40;;;5.00;99.90;;;;;;4988810;28;20038;-63
2022/01/07 10:15:17;;;;;;;26.77;9.07;;;5.10;99.90;;;;;;4971041;28;20103;-63
2022/01/07 10:17:55;;;;;;;19.50;9.00;;;5.10;99.90;;;;;;4970287;28;20121;-63
2022/01/07 10:20:26;;;;;;;10.90;6.05;;;5.10;99.90;;;;;;4964063;28;20084;-63
2022/01/07 10:23:00;;;;;;;24.20;9.50;;;5.10;99.90;;;;;;4982602;28;20074;-63
2022/01/07 10:25:29;;;;;;;18.80;8.48;;;5.20;99.90;;;;;;4982535;28;20045;-63
2022/01/07 10:28:07;;;;;;;22.55;9.90;;;5.20;99.90;;;;;;4995820;28;20451;-63
2022/01/07 10:30:42;;;;;;;14.80;8.00;;;5.20;99.90;;;;;;4986004;28;20588;-64
2022/01/07 10:33:26;;;;;;;26.15;9.65;;;5.30;99.90;;;;;;4981658;28;20038;-63
2022/01/07 10:36:13;;;;;;;20.75;7.97;;;5.30;99.90;;;;;;4991090;28;20046;-63
2022/01/07 10:38:51;;;;;;;12.52;6.20;;;5.30;99.60;;;;;;4984988;28;20038;-64
2022/01/07 10:41:18;;;;;;;9.57;4.90;;;5.30;99.30;;;;;;4986493;28;20054;-63
2022/01/07 10:43:43;;;;;;;10.25;3.63;;;5.30;98.90;;;;;;4967034;28;20453;-63
2022/01/07 10:46:19;;;;;;;9.27;4.68;;;5.30;98.00;;;;;;4986370;28;20642;-63
2022/01/07 10:48:50;;;;;;;8.63;3.65;;;5.20;97.40;;;;;;4982973;28;20046;-63
2022/01/07 10:51:19;;;;;;;7.68;3.55;;;5.20;97.40;;;;;;4965501;28;20065;-63
2022/01/07 10:53:52;;;;;;;8.15;3.85;;;5.20;97.40;;;;;;4965627;28;20046;-63
2022/01/07 10:56:22;;;;;;;7.22;2.78;;;5.10;97.40;;;;;;4984563;28;20053;-63
2022/01/07 10:58:51;;;;;;;3.40;3.03;;;5.10;97.60;;;;;;4967464;28;20104;-63
2022/01/07 11:01:19;;;;;;;6.28;3.47;;;5.10;97.80;;;;;;4987620;28;20124;-64
2022/01/07 11:03:54;;;;;;;4.53;3.50;;;5.10;97.90;;;;;;4968831;28;20496;-63
2022/01/07 11:06:21;;;;;;;5.30;3.58;;;5.10;98.10;;;;;;4985779;28;20039;-63
2022/01/07 11:08:52;;;;;;;6.85;3.45;;;5.10;98.20;;;;;;4989253;28;20449;-63
2022/01/07 11:11:23;;;;;;;9.57;5.03;;;5.20;98.60;;;;;;4986943;28;20053;-64
2022/01/07 11:13:49;;;;;;;8.52;4.75;;;5.20;98.70;;;;;;4985671;28;20484;-63
2022/01/07 11:16:16;;;;;;;8.68;4.97;;;5.20;98.90;;;;;;4951440;28;20054;-63
2022/01/07 11:18:44;;;;;;;6.13;4.53;;;5.30;98.80;;;;;;4981745;28;20971;-63
2022/01/07 11:21:10;;;;;;;9.52;4.03;;;5.30;98.60;;;;;;4986607;28;20078;-63
2022/01/07 11:23:38;;;;;;;8.43;3.00;;;5.30;98.20;;;;;;4982671;28;20140;-63
2022/01/07 11:26:05;;;;;;;4.85;3.10;;;5.40;97.60;;;;;;4989166;28;20035;-63
2022/01/07 11:28:32;;;;;;;6.57;1.90;;;5.40;97.40;;;;;;4984668;28;20353;-63
2022/01/07 11:31:14;;;;;;;4.10;1.92;;;5.50;96.80;;;;;;4984197;28;20112;-64
2022/01/07 11:33:41;;;;;;;3.85;1.33;;;5.50;95.90;;;;;;4986091;28;20396;-63
2022/01/07 11:36:33;;;;;;;1.88;1.45;;;5.60;95.70;;;;;;4984731;28;20054;-64
2022/01/07 11:39:04;;;;;;;3.58;1.77;;;5.70;95.90;;;;;;4991179;28;20380;-64
2022/01/07 11:41:47;;;;;;;3.20;1.90;;;5.70;95.20;;;;;;4976652;28;20050;-64
2022/01/07 11:44:29;;;;;;;9.50;2.50;;;5.80;95.00;;;;;;4993192;28;20060;-63
2022/01/07 11:47:13;;;;;;;7.93;2.90;;;5.80;95.10;;;;;;4988295;28;20556;-63
2022/01/07 11:49:39;;;;;;;5.15;2.15;;;5.70;94.90;;;;;;4979844;28;20034;-63
2022/01/07 11:52:36;;;;;;;4.63;1.95;;;5.60;95.40;;;;;;4968263;28;20053;-63
2022/01/07 11:55:21;;;;;;;3.67;2.00;;;5.60;95.70;;;;;;4963908;28;20160;-63
2022/01/07 11:57:54;;;;;;;4.15;1.48;;;5.50;95.60;;;;;;4984990;28;20146;-63
2022/01/07 12:00:57;;;;;;;7.40;2.50;;;5.50;95.90;;;;;;4984540;28;20492;-63
2022/01/07 12:03:40;;;;;;;9.00;2.60;;;5.40;95.60;;;;;;4981979;28;20137;-63
2022/01/07 12:06:36;;;;;;;6.13;2.35;;;5.40;95.60;;;;;;4968004;28;20129;-63
2022/01/07 12:09:13;;;;;;;7.22;1.80;;;5.50;95.90;;;;;;4965879;28;20501;-63
2022/01/07 12:11:40;;;;;;;6.18;2.38;;;5.60;95.70;;;;;;4975663;28;20046;-63
2022/01/07 12:14:27;;;;;;;9.32;3.08;;;5.60;95.70;;;;;;4982335;28;20042;-63
2022/01/07 12:16:55;;;;;;;8.95;1.98;;;5.60;95.80;;;;;;4987298;28;20054;-63
2022/01/07 12:19:37;;;;;;;6.95;3.13;;;5.60;96.10;;;;;;4983593;28;20047;-63
2022/01/07 12:22:10;;;;;;;8.18;3.63;;;5.60;96.30;;;;;;4983918;28;20038;-63
2022/01/07 12:24:36;;;;;;;7.30;2.95;;;5.60;96.50;;;;;;4984659;28;20093;-63
2022/01/07 12:27:03;;;;;;;9.63;3.60;;;5.60;96.70;;;;;;4989643;28;20475;-63
2022/01/07 12:29:31;;;;;;;12.60;3.85;;;5.60;96.70;;;;;;4987794;28;20042;-63
2022/01/07 12:31:58;;;;;;;12.65;4.63;;;5.60;96.50;;;;;;4988652;28;20058;-63
2022/01/07 12:34:32;;;;;;;9.02;3.70;;;5.70;96.40;;;;;;4989259;28;20408;-63
2022/01/07 12:37:03;;;;;;;14.15;4.38;;;5.70;96.50;;;;;;4988006;28;20053;-63
2022/01/07 12:39:32;;;;;;;12.60;3.90;;;5.60;96.80;;;;;;4977720;28;20046;-63
2022/01/07 12:41:58;;;;;;;19.77;5.43;;;5.50;96.90;;;;;;4976282;28;20126;-63
2022/01/07 12:44:25;;;;;;;19.90;6.43;;;5.50;97.30;;;;;;4986106;28;20042;-63
2022/01/07 12:46:54;;;;;;;12.35;5.20;;;5.50;97.50;;;;;;4999893;28;20092;-63
2022/01/07 12:49:31;;;;;;;13.52;4.63;;;5.50;97.80;;;;;;4978409;28;20122;-63
2022/01/07 12:52:05;;;;;;;14.57;5.20;;;5.70;97.70;;;;;;4992966;28;20042;-63
2022/01/07 12:54:31;;;;;;;15.52;5.80;;;5.80;97.30;;;;;;4971431;28;20473;-63
2022/01/07 12:56:58;;;;;;;9.38;4.25;;;5.90;97.00;;;;;;4992105;28;20038;-63
2022/01/07 12:59:25;;;;;;;18.40;4.82;;;5.80;96.70;;;;;;4955039;28;20046;-63
2022/01/07 13:01:51;;;;;;;8.82;4.72;;;5.80;96.80;;;;;;4977106;28;20404;-63
2022/01/07 13:04:22;;;;;;;11.18;3.95;;;5.80;97.30;;;;;;4980191;28;20055;-63
2022/01/07 13:06:54;;;;;;;16.42;4.65;;;5.80;97.10;;;;;;4984150;28;20435;-63
2022/01/07 13:09:25;;;;;;;6.90;2.42;;;5.70;96.80;;;;;;4993047;28;20563;-63